createdAt,value
2023-04-27T00:01:44.821Z,100.00
2023-04-27T00:04:14.525Z,100.00
2023-04-27T00:06:44.524Z,100.00
2023-04-27T00:09:11.872Z,100.00
2023-04-27T00:11:39.053Z,100.00
2023-04-27T00:14:06.406Z,100.00
2023-04-27T00:16:33.653Z,100.00
2023-04-27T00:19:01.192Z,100.00
2023-04-27T00:21:28.756Z,100.00
2023-04-27T00:23:56.092Z,100.00
2023-04-27T00:26:23.408Z,100.00
2023-04-27T00:28:53.208Z,100.00
2023-04-27T00:31:21.016Z,100.00
2023-04-27T00:33:49.469Z,100.00
2023-04-27T00:36:17.313Z,100.00
2023-04-27T00:38:44.510Z,100.00
2023-04-27T00:41:11.768Z,100.00
2023-04-27T00:43:44.037Z,100.00
2023-04-27T00:46:13.295Z,100.00
2023-04-27T00:48:41.639Z,100.00
2023-04-27T00:51:09.687Z,100.00
2023-04-27T00:53:37.178Z,100.00
2023-04-27T00:56:08.015Z,100.00
2023-04-27T00:58:35.410Z,100.00
2023-04-27T01:01:04.288Z,100.00
2023-04-27T01:03:32.609Z,100.00
2023-04-27T01:06:02.372Z,100.00
2023-04-27T01:08:30.153Z,100.00
2023-04-27T01:10:57.435Z,100.00
2023-04-27T01:13:24.907Z,100.00
2023-04-27T01:15:52.268Z,100.00
2023-04-27T01:18:19.669Z,100.00
2023-04-27T01:20:49.295Z,100.00
2023-04-27T01:23:17.359Z,100.00
2023-04-27T01:25:44.939Z,100.00
2023-04-27T01:28:12.905Z,100.00
2023-04-27T01:30:39.979Z,100.00
2023-04-27T01:33:06.820Z,100.00
2023-04-27T01:35:34.066Z,100.00
2023-04-27T01:38:01.720Z,100.00
2023-04-27T01:40:29.592Z,100.00
2023-04-27T01:43:00.388Z,100.00
2023-04-27T01:45:29.324Z,100.00
2023-04-27T01:47:56.817Z,100.00
2023-04-27T01:50:23.908Z,100.00
2023-04-27T01:52:50.985Z,100.00
2023-04-27T01:55:18.397Z,100.00
2023-04-27T01:57:45.941Z,100.00
2023-04-27T02:00:15.089Z,100.00
2023-04-27T02:02:51.370Z,100.00
2023-04-27T02:05:21.112Z,100.00
2023-04-27T02:07:51.397Z,100.00
2023-04-27T02:10:22.627Z,100.00
2023-04-27T02:12:49.937Z,100.00
2023-04-27T02:15:17.338Z,100.00
2023-04-27T02:17:45.835Z,100.00
2023-04-27T02:20:13.598Z,100.00
2023-04-27T02:22:45.089Z,100.00
2023-04-27T02:25:13.746Z,100.00
2023-04-27T02:27:44.065Z,100.00
2023-04-27T02:30:13.322Z,100.00
2023-04-27T02:32:42.349Z,100.00
2023-04-27T02:35:10.765Z,100.00
2023-04-27T02:37:40.663Z,100.00
2023-04-27T02:40:09.849Z,100.00
2023-04-27T02:42:41.022Z,100.00
2023-04-27T02:45:12.647Z,100.00
2023-04-27T02:47:41.876Z,100.00
2023-04-27T02:50:10.378Z,100.00
2023-04-27T02:52:41.164Z,100.00
2023-04-27T02:55:09.007Z,100.00
2023-04-27T02:57:37.158Z,100.00
2023-04-27T03:00:09.826Z,100.00
2023-04-27T03:02:37.236Z,100.00
2023-04-27T03:05:08.323Z,100.00
2023-04-27T03:07:37.321Z,100.00
2023-04-27T03:10:07.143Z,100.00
2023-04-27T03:12:35.271Z,100.00
2023-04-27T03:15:05.135Z,100.00
2023-04-27T03:17:35.567Z,100.00
2023-04-27T03:20:09.337Z,100.00
2023-04-27T03:22:39.087Z,100.00
2023-04-27T03:25:08.817Z,100.00
2023-04-27T03:27:36.509Z,100.00
2023-04-27T03:31:01.203Z,100.00
2023-04-27T03:33:31.211Z,100.00
2023-04-27T03:35:59.869Z,100.00
2023-04-27T03:38:28.949Z,100.00
2023-04-27T03:40:57.380Z,100.00
2023-04-27T03:43:27.396Z,100.00
2023-04-27T03:45:55.953Z,100.00
2023-04-27T03:48:23.342Z,100.00
2023-04-27T03:50:53.269Z,99.74
2023-04-27T03:53:21.664Z,99.26
2023-04-27T03:55:51.913Z,99.16
2023-04-27T03:58:20.699Z,98.84
2023-04-27T04:01:14.284Z,98.38
2023-04-27T04:03:43.455Z,97.69
2023-04-27T04:06:12.415Z,97.52
2023-04-27T04:08:40.198Z,97.14
2023-04-27T04:11:08.215Z,96.96
2023-04-27T04:13:38.761Z,97.42
2023-04-27T04:16:10.179Z,96.39
2023-04-27T04:18:41.305Z,95.98
2023-04-27T04:21:14.071Z,96.02
2023-04-27T04:23:41.521Z,96.05
2023-04-27T04:26:10.062Z,96.02
2023-04-27T04:28:38.710Z,95.75
2023-04-27T04:31:10.165Z,95.65
2023-04-27T04:33:37.869Z,95.75
2023-04-27T04:36:07.034Z,95.97
2023-04-27T04:38:38.390Z,95.56
2023-04-27T04:41:07.862Z,95.73
2023-04-27T04:43:35.160Z,95.90
2023-04-27T04:46:07.098Z,95.57
2023-04-27T04:48:35.017Z,95.59
2023-04-27T04:51:04.298Z,95.47
2023-04-27T04:53:33.239Z,95.35
2023-04-27T04:56:14.530Z,94.75
2023-04-27T04:58:41.717Z,94.31
2023-04-27T05:01:12.193Z,93.91
2023-04-27T05:03:39.658Z,93.51
2023-04-27T05:06:11.785Z,93.55
2023-04-27T05:08:39.833Z,92.81
2023-04-27T05:11:07.524Z,92.70
2023-04-27T05:13:36.221Z,92.31
2023-04-27T05:16:07.444Z,92.09
2023-04-27T05:18:36.185Z,92.04
2023-04-27T05:21:05.333Z,90.38
2023-04-27T05:23:34.177Z,90.80
2023-04-27T05:26:02.597Z,90.24
2023-04-27T05:28:30.894Z,90.53
2023-04-27T05:30:58.304Z,90.18
2023-04-27T05:33:27.592Z,89.46
2023-04-27T05:35:55.110Z,88.76
2023-04-27T05:38:22.848Z,88.56
2023-04-27T05:40:59.975Z,88.92
2023-04-27T05:43:27.895Z,89.08
2023-04-27T05:45:56.435Z,89.24
2023-04-27T05:48:23.593Z,88.87
2023-04-27T05:50:58.978Z,88.48
2023-04-27T05:53:27.303Z,89.25
2023-04-27T05:55:54.483Z,89.73
2023-04-27T05:58:21.864Z,90.78
2023-04-27T06:00:48.638Z,90.26
2023-04-27T06:03:16.039Z,89.96
2023-04-27T06:05:43.699Z,89.60
2023-04-27T06:08:12.370Z,89.63
2023-04-27T06:10:39.748Z,90.12
2023-04-27T06:13:06.981Z,89.83
2023-04-27T06:15:34.354Z,90.11
2023-04-27T06:18:01.688Z,89.58
2023-04-27T06:20:29.482Z,88.89
2023-04-27T06:22:58.298Z,88.80
2023-04-27T06:25:27.224Z,88.70
2023-04-27T06:27:59.209Z,88.56
2023-04-27T06:30:28.870Z,88.81
2023-04-27T06:32:56.424Z,88.73
2023-04-27T06:35:24.803Z,89.39
2023-04-27T06:37:52.156Z,89.52
2023-04-27T06:40:21.914Z,89.27
2023-04-27T06:42:48.764Z,88.53
2023-04-27T06:45:16.543Z,86.88
2023-04-27T06:47:43.470Z,87.06
2023-04-27T06:50:12.200Z,85.57
2023-04-27T06:52:40.139Z,86.06
2023-04-27T06:55:08.025Z,86.21
2023-04-27T06:57:35.526Z,85.90
2023-04-27T07:00:04.916Z,85.79
2023-04-27T07:02:32.626Z,85.99
2023-04-27T07:04:59.920Z,85.25
2023-04-27T07:07:27.287Z,85.53
2023-04-27T07:09:54.804Z,85.27
2023-04-27T07:12:22.175Z,84.74
2023-04-27T07:14:51.416Z,83.39
2023-04-27T07:17:18.869Z,82.97
2023-04-27T07:19:45.950Z,82.86
2023-04-27T07:22:13.185Z,81.45
2023-04-27T07:24:40.416Z,81.04
2023-04-27T07:27:08.661Z,81.63
2023-04-27T07:29:56.110Z,81.48
2023-04-27T07:32:42.076Z,81.39
2023-04-27T07:35:13.807Z,81.04
2023-04-27T07:37:41.880Z,81.84
2023-04-27T07:40:14.882Z,81.76
2023-04-27T07:42:43.171Z,81.77
2023-04-27T07:45:10.862Z,81.41
2023-04-27T07:47:39.899Z,81.64
2023-04-27T07:50:08.819Z,81.82
2023-04-27T07:52:37.574Z,82.32
2023-04-27T07:55:05.432Z,81.10
2023-04-27T07:57:32.578Z,82.31
2023-04-27T07:59:59.906Z,80.43
2023-04-27T08:02:32.173Z,79.55
2023-04-27T08:04:59.745Z,78.59
2023-04-27T08:07:28.098Z,79.47
2023-04-27T08:09:55.269Z,79.03
2023-04-27T08:12:22.680Z,79.16
2023-04-27T08:14:50.089Z,78.81
2023-04-27T08:17:18.816Z,79.67
2023-04-27T08:19:46.636Z,79.81
2023-04-27T08:22:14.920Z,80.30
2023-04-27T08:24:42.761Z,80.39
2023-04-27T08:27:10.585Z,80.72
2023-04-27T08:29:37.463Z,81.64
2023-04-27T08:32:05.699Z,81.40
2023-04-27T08:34:32.846Z,81.82
2023-04-27T08:37:00.884Z,81.31
2023-04-27T08:39:28.714Z,81.40
2023-04-27T08:41:55.948Z,81.83
2023-04-27T08:44:23.499Z,81.66
2023-04-27T08:46:51.959Z,80.87
2023-04-27T08:49:20.046Z,80.49
2023-04-27T08:51:47.315Z,81.31
2023-04-27T08:54:14.644Z,81.83
2023-04-27T08:56:42.908Z,81.43
2023-04-27T08:59:17.782Z,80.73
2023-04-27T09:01:49.657Z,79.45
2023-04-27T09:04:18.112Z,78.54
2023-04-27T09:06:45.676Z,77.92
2023-04-27T09:09:22.987Z,78.46
2023-04-27T09:11:50.762Z,78.50
2023-04-27T09:14:20.178Z,78.54
2023-04-27T09:16:58.054Z,78.44
2023-04-27T09:19:30.016Z,78.62
2023-04-27T09:22:09.138Z,78.17
2023-04-27T09:24:36.275Z,78.19
2023-04-27T09:27:03.645Z,78.82
2023-04-27T09:29:38.276Z,79.92
2023-04-27T09:32:17.583Z,80.35
2023-04-27T09:34:45.729Z,81.22
2023-04-27T09:37:14.530Z,81.53
2023-04-27T09:39:43.284Z,81.46
2023-04-27T09:42:13.752Z,81.52
2023-04-27T09:44:41.476Z,81.89
2023-04-27T09:47:11.056Z,81.66
2023-04-27T09:49:39.021Z,81.34
2023-04-27T09:52:06.368Z,82.01
2023-04-27T09:54:36.173Z,81.50
2023-04-27T09:57:12.168Z,81.82
2023-04-27T09:59:56.183Z,81.54
2023-04-27T10:02:25.986Z,81.72
2023-04-27T10:05:11.958Z,82.51
2023-04-27T10:07:41.401Z,83.99
2023-04-27T10:10:20.749Z,82.66
2023-04-27T10:13:04.051Z,82.61
2023-04-27T10:15:31.204Z,83.14
2023-04-27T10:18:06.161Z,82.92
2023-04-27T10:20:37.167Z,82.08
2023-04-27T10:23:04.881Z,82.12
2023-04-27T10:25:42.074Z,81.73
2023-04-27T10:28:17.707Z,82.39
2023-04-27T10:30:47.297Z,81.94
2023-04-27T10:33:19.695Z,80.87
2023-04-27T10:35:56.961Z,80.38
2023-04-27T10:38:29.807Z,80.19
2023-04-27T10:41:02.441Z,80.04
2023-04-27T10:43:30.932Z,79.87
2023-04-27T10:46:12.539Z,79.75
2023-04-27T10:48:41.195Z,79.58
2023-04-27T10:51:08.212Z,79.17
2023-04-27T10:53:39.134Z,79.74
2023-04-27T10:56:07.354Z,79.23
2023-04-27T10:58:48.114Z,78.45
2023-04-27T11:01:27.261Z,78.77
2023-04-27T11:03:59.248Z,77.84
2023-04-27T11:06:28.507Z,77.78
2023-04-27T11:08:56.453Z,77.58
2023-04-27T11:11:24.511Z,77.85
2023-04-27T11:13:55.836Z,77.81
2023-04-27T11:16:23.941Z,78.72
2023-04-27T11:18:51.228Z,79.88
2023-04-27T11:21:20.867Z,80.22
2023-04-27T11:23:48.071Z,80.16
2023-04-27T11:26:20.162Z,79.81
2023-04-27T11:29:14.576Z,80.09
2023-04-27T11:31:51.115Z,80.67
2023-04-27T11:34:23.809Z,80.73
2023-04-27T11:37:17.438Z,81.17
2023-04-27T11:39:46.620Z,81.54
2023-04-27T11:42:18.230Z,80.97
2023-04-27T11:44:58.838Z,81.28
2023-04-27T11:47:30.873Z,81.70
2023-04-27T11:49:59.905Z,82.79
2023-04-27T11:52:30.668Z,83.97
2023-04-27T11:54:58.478Z,83.79
2023-04-27T11:57:29.760Z,83.94
2023-04-27T12:00:01.985Z,83.53
2023-04-27T12:02:42.873Z,83.19
2023-04-27T12:05:12.949Z,83.59
2023-04-27T12:07:41.585Z,84.48
2023-04-27T12:10:09.465Z,86.04
2023-04-27T12:12:37.290Z,85.44
2023-04-27T12:15:05.473Z,84.67
2023-04-27T12:17:33.213Z,84.22
2023-04-27T12:20:00.814Z,83.22
2023-04-27T12:22:29.195Z,82.67
2023-04-27T12:24:57.044Z,80.99
2023-04-27T12:27:24.245Z,80.76
2023-04-27T12:29:52.709Z,78.78
2023-04-27T12:32:20.563Z,78.87
2023-04-27T12:34:51.252Z,78.69
2023-04-27T12:37:19.306Z,78.90
2023-04-27T12:39:48.585Z,78.13
2023-04-27T12:42:18.206Z,78.75
2023-04-27T12:44:48.771Z,78.06
2023-04-27T12:47:34.552Z,77.05
2023-04-27T12:50:03.875Z,75.45
2023-04-27T12:52:31.455Z,76.22
2023-04-27T12:54:59.587Z,76.01
2023-04-27T12:57:26.967Z,74.59
2023-04-27T12:59:55.385Z,74.70
2023-04-27T13:02:22.406Z,74.75
2023-04-27T13:04:49.864Z,74.44
2023-04-27T13:07:17.464Z,73.96
2023-04-27T13:09:45.253Z,73.40
2023-04-27T13:12:14.609Z,72.89
2023-04-27T13:14:43.459Z,72.76
2023-04-27T13:17:10.930Z,73.87
2023-04-27T13:19:37.870Z,72.91
2023-04-27T13:22:05.647Z,72.84
2023-04-27T13:24:33.008Z,72.42
2023-04-27T13:27:01.839Z,72.15
2023-04-27T13:29:29.775Z,72.62
2023-04-27T13:31:57.271Z,72.68
2023-04-27T13:34:25.287Z,73.51
2023-04-27T13:36:52.700Z,73.75
2023-04-27T13:39:22.409Z,74.12
2023-04-27T13:41:49.563Z,73.78
2023-04-27T13:44:16.822Z,74.57
2023-04-27T13:46:43.828Z,74.01
2023-04-27T13:49:11.904Z,72.59
2023-04-27T13:51:42.314Z,72.13
2023-04-27T13:54:09.836Z,70.97
2023-04-27T13:56:38.334Z,71.09
2023-04-27T13:59:06.154Z,70.07
2023-04-27T14:01:33.961Z,70.43
2023-04-27T14:04:02.326Z,69.80
2023-04-27T14:06:29.802Z,70.14
2023-04-27T14:08:57.038Z,70.82
2023-04-27T14:11:25.632Z,70.38
2023-04-27T14:13:52.968Z,71.69
2023-04-27T14:16:21.234Z,71.50
2023-04-27T14:18:48.657Z,71.94
2023-04-27T14:21:16.209Z,71.31
2023-04-27T14:23:43.930Z,71.80
2023-04-27T14:26:11.337Z,71.21
2023-04-27T14:28:38.600Z,71.28
2023-04-27T14:31:06.295Z,71.79
2023-04-27T14:33:33.862Z,71.37
2023-04-27T14:36:01.436Z,71.52
2023-04-27T14:38:28.473Z,72.59
2023-04-27T14:40:56.424Z,72.15
2023-04-27T14:43:23.577Z,72.78
2023-04-27T14:45:54.232Z,72.46
2023-04-27T14:48:24.397Z,73.74
2023-04-27T14:50:53.227Z,73.73
2023-04-27T14:53:22.281Z,72.92
2023-04-27T14:55:49.744Z,72.90
2023-04-27T14:58:17.210Z,72.35
2023-04-27T15:00:44.619Z,72.79
2023-04-27T15:03:12.226Z,72.72
2023-04-27T15:05:41.985Z,73.31
2023-04-27T15:08:09.302Z,73.52
2023-04-27T15:10:36.501Z,73.47
2023-04-27T15:13:04.019Z,73.05
2023-04-27T15:15:31.377Z,73.11
2023-04-27T15:17:59.536Z,72.74
2023-04-27T15:20:26.994Z,72.76
2023-04-27T15:22:54.432Z,72.45
2023-04-27T15:25:21.763Z,72.99
2023-04-27T15:27:49.871Z,72.43
2023-04-27T15:30:17.122Z,71.71
2023-04-27T15:32:44.465Z,72.00
2023-04-27T15:35:12.093Z,72.00
2023-04-27T15:37:39.752Z,72.77
2023-04-27T15:40:10.789Z,72.95
2023-04-27T15:42:38.068Z,73.21
2023-04-27T15:45:09.296Z,72.28
2023-04-27T15:47:43.290Z,72.69
2023-04-27T15:50:11.055Z,72.47
2023-04-27T15:52:38.147Z,72.59
2023-04-27T15:55:06.691Z,71.41
2023-04-27T15:57:33.951Z,72.24
2023-04-27T16:00:02.267Z,72.82
2023-04-27T16:02:38.426Z,73.19
2023-04-27T16:05:07.589Z,73.21
2023-04-27T16:07:40.132Z,73.11
2023-04-27T16:10:08.424Z,73.80
2023-04-27T16:12:35.792Z,73.90
2023-04-27T16:15:03.792Z,74.22
2023-04-27T16:17:33.763Z,74.89
2023-04-27T16:20:01.151Z,75.35
2023-04-27T16:22:29.095Z,74.95
2023-04-27T16:24:56.326Z,75.08
2023-04-27T16:27:24.029Z,75.26
2023-04-27T16:29:53.797Z,75.46
2023-04-27T16:32:21.922Z,75.56
2023-04-27T16:34:49.323Z,75.68
2023-04-27T16:37:16.323Z,75.72
2023-04-27T16:39:43.750Z,76.00
2023-04-27T16:42:13.353Z,76.49
2023-04-27T16:44:40.641Z,76.72
2023-04-27T16:47:08.106Z,76.28
2023-04-27T16:49:35.813Z,76.11
2023-04-27T16:52:03.997Z,76.60
2023-04-27T16:54:31.603Z,77.23
2023-04-27T16:57:01.918Z,77.09
2023-04-27T16:59:30.492Z,77.09
2023-04-27T17:02:12.397Z,77.45
2023-04-27T17:04:49.115Z,77.84
2023-04-27T17:07:16.914Z,78.01
2023-04-27T17:09:44.725Z,78.04
2023-04-27T17:12:14.663Z,77.98
2023-04-27T17:14:42.973Z,78.18
2023-04-27T17:17:11.871Z,78.61
2023-04-27T17:19:41.459Z,78.98
2023-04-27T17:22:13.413Z,79.17
2023-04-27T17:24:40.998Z,79.83
2023-04-27T17:27:07.896Z,79.73
2023-04-27T17:29:36.198Z,80.21
2023-04-27T17:32:04.782Z,80.54
2023-04-27T17:34:33.059Z,80.73
2023-04-27T17:37:00.304Z,81.09
2023-04-27T17:39:28.537Z,80.98
2023-04-27T17:41:56.882Z,81.19
2023-04-27T17:44:23.979Z,81.37
2023-04-27T17:46:52.383Z,81.84
2023-04-27T17:49:19.920Z,82.04
2023-04-27T17:51:47.622Z,82.14
2023-04-27T17:54:15.540Z,83.04
2023-04-27T17:56:43.325Z,82.60
2023-04-27T17:59:10.468Z,82.46
2023-04-27T18:01:37.953Z,83.49
2023-04-27T18:04:07.404Z,83.48
2023-04-27T18:06:34.535Z,83.46
2023-04-27T18:09:02.134Z,83.97
2023-04-27T18:11:30.352Z,84.02
2023-04-27T18:13:58.595Z,84.09
2023-04-27T18:16:26.022Z,83.90
2023-04-27T18:18:53.424Z,84.19
2023-04-27T18:21:20.478Z,84.33
2023-04-27T18:23:48.127Z,84.12
2023-04-27T18:26:15.290Z,84.54
2023-04-27T18:28:42.376Z,84.59
2023-04-27T18:31:19.306Z,84.98
2023-04-27T18:33:47.537Z,84.65
2023-04-27T18:36:21.064Z,84.62
2023-04-27T18:38:52.657Z,85.41
2023-04-27T18:41:26.509Z,85.51
2023-04-27T18:44:06.243Z,85.58
2023-04-27T18:46:37.178Z,85.47
2023-04-27T18:49:05.304Z,85.92
2023-04-27T18:51:33.201Z,86.28
2023-04-27T18:54:00.572Z,86.58
2023-04-27T18:56:27.965Z,86.48
2023-04-27T18:58:56.332Z,86.61
2023-04-27T19:01:28.608Z,86.42
2023-04-27T19:03:57.102Z,86.56
2023-04-27T19:06:27.714Z,86.85
2023-04-27T19:08:54.965Z,87.21
2023-04-27T19:11:31.992Z,87.49
2023-04-27T19:14:01.418Z,87.21
2023-04-27T19:16:29.143Z,87.26
2023-04-27T19:18:57.060Z,87.79
2023-04-27T19:21:24.390Z,87.85
2023-04-27T19:23:54.017Z,87.76
2023-04-27T19:26:22.029Z,87.98
2023-04-27T19:28:50.919Z,88.22
2023-04-27T19:31:19.641Z,88.23
2023-04-27T19:36:22.192Z,87.69
2023-04-27T19:38:49.633Z,87.58
2023-04-27T19:41:17.862Z,86.76
2023-04-27T19:43:45.073Z,86.61
2023-04-27T19:46:12.096Z,86.67
2023-04-27T19:48:39.050Z,85.84
2023-04-27T19:51:09.355Z,85.35
2023-04-27T19:53:38.037Z,85.26
2023-04-27T19:56:05.545Z,84.66
2023-04-27T19:58:32.742Z,84.48
2023-04-27T20:00:59.843Z,84.04
2023-04-27T20:03:27.523Z,84.30
2023-04-27T20:05:55.036Z,83.33
2023-04-27T20:08:22.337Z,83.47
2023-04-27T20:10:49.834Z,82.70
2023-04-27T20:13:17.354Z,81.43
2023-04-27T20:15:44.818Z,81.32
2023-04-27T20:18:12.437Z,80.33
2023-04-27T20:20:42.078Z,80.23
2023-04-27T20:23:09.777Z,79.41
2023-04-27T20:25:37.156Z,79.52
2023-04-27T20:28:04.710Z,79.78
2023-04-27T20:30:31.729Z,78.98
2023-04-27T20:32:59.525Z,78.04
2023-04-27T20:35:27.773Z,78.49
2023-04-27T20:37:55.335Z,77.71
2023-04-27T20:40:23.248Z,77.88
2023-04-27T20:42:50.615Z,77.35
2023-04-27T20:45:18.101Z,76.27
2023-04-27T20:47:46.013Z,76.63
2023-04-27T20:50:13.093Z,74.49
2023-04-27T20:52:41.338Z,74.17
2023-04-27T20:55:08.620Z,73.75
2023-04-27T20:57:36.436Z,74.76
2023-04-27T21:00:06.573Z,74.04
2023-04-27T21:02:33.903Z,74.56
2023-04-27T21:05:02.009Z,73.77
2023-04-27T21:07:29.441Z,74.61
2023-04-27T21:09:56.610Z,73.71
2023-04-27T21:12:23.998Z,74.48
2023-04-27T21:14:51.240Z,73.58
2023-04-27T21:17:18.487Z,73.19
2023-04-27T21:19:45.716Z,73.19
2023-04-27T21:22:13.356Z,72.29
2023-04-27T21:24:40.380Z,71.82
2023-04-27T21:27:07.893Z,72.39
2023-04-27T21:29:38.844Z,71.67
2023-04-27T21:32:05.790Z,71.75
2023-04-27T21:34:34.558Z,72.42
2023-04-27T21:37:02.102Z,72.87
2023-04-27T21:39:29.755Z,72.92
2023-04-27T21:41:57.204Z,72.52
2023-04-27T21:44:24.380Z,72.59
2023-04-27T21:46:52.158Z,71.95
2023-04-27T21:49:19.857Z,72.11
2023-04-27T21:51:47.755Z,71.39
2023-04-27T21:54:15.129Z,72.51
2023-04-27T21:56:43.076Z,71.86
2023-04-27T21:59:10.617Z,71.50
2023-04-27T22:01:38.042Z,72.21
2023-04-27T22:04:06.634Z,72.01
2023-04-27T22:06:33.940Z,71.34
2023-04-27T22:09:01.162Z,71.77
2023-04-27T22:11:28.338Z,71.75
2023-04-27T22:13:56.434Z,71.93
2023-04-27T22:16:24.075Z,71.57
2023-04-27T22:18:51.112Z,72.28
2023-04-27T22:21:17.843Z,71.27
2023-04-27T22:23:45.049Z,71.99
2023-04-27T22:26:12.258Z,71.14
2023-04-27T22:28:39.913Z,71.41
2023-04-27T22:31:07.938Z,71.86
2023-04-27T22:33:36.897Z,71.56
2023-04-27T22:36:04.057Z,71.83
2023-04-27T22:38:33.944Z,70.98
2023-04-27T22:41:01.188Z,71.44
2023-04-27T22:43:28.135Z,71.45
2023-04-27T22:45:55.886Z,71.66
2023-04-27T22:48:23.349Z,70.75
2023-04-27T22:50:51.420Z,72.07
2023-04-27T22:53:18.843Z,71.78
2023-04-27T22:55:46.218Z,72.16
2023-04-27T22:58:13.454Z,71.91
2023-04-27T23:00:40.588Z,71.72
2023-04-27T23:03:07.480Z,72.43
2023-04-27T23:05:34.926Z,72.04
2023-04-27T23:08:03.380Z,71.57
2023-04-27T23:10:31.425Z,71.50
2023-04-27T23:12:58.673Z,71.95
2023-04-27T23:15:25.963Z,71.64
2023-04-27T23:17:52.913Z,71.30
2023-04-27T23:20:28.049Z,72.16
2023-04-27T23:22:56.491Z,72.19
2023-04-27T23:25:23.708Z,72.30
2023-04-27T23:27:52.518Z,72.17
2023-04-27T23:30:23.764Z,71.79
2023-04-27T23:32:51.126Z,72.41
2023-04-27T23:35:20.736Z,72.16
2023-04-27T23:37:52.848Z,72.11
2023-04-27T23:40:20.956Z,72.67
2023-04-27T23:42:50.935Z,72.47
2023-04-27T23:45:25.458Z,72.27
2023-04-27T23:47:56.705Z,72.28
2023-04-27T23:50:33.995Z,73.01
2023-04-27T23:53:03.979Z,73.03
2023-04-27T23:55:35.052Z,72.33
2023-04-27T23:58:04.606Z,72.79
